Jennings Lodge, Oregon
Current Conditions -  °F | °C
As of 11:53 PM on Saturday 25 Oct 2014 (Local Time) from KPDX Reporting Station
Light Rain Light Rain  
Wind Chill: 52°   Ceiling: 7000
Heat Index: 52°   Visibility: 10mi
Dew Point: 49°   Wind: 12mph
Humidity: 89%   Direction: 200°SSW
Pressure: 29.9"   Gusts: NA
Location:  45.4079°N, 122.613°W
Report Text: KPDX 260653Z 20010KT 10SM -RA BKN070 OVC090 11/09 A2990 RMK AO2 RAB18 SLP123 P0000 T01110094 $
Loading
Personal Weather Stations






























Interactive Weather Map
Tropical Storm Tracking
New forecast layout! Learn more

10-Day Weather Forecast

Advertisements
Track Severe Weather on mobile